sensor_id;sensor_type;location;lat;lon;timestamp;pressure;altitude;pressure_sealevel;temperature;humidity
29879;BME280;16752;53.364;-1.488;2023-03-25T00:00:39;97983.72;;;13.35;52.25
29879;BME280;16752;53.364;-1.488;2023-03-25T00:03:31;97857.31;;;11.91;53.66
29879;BME280;16752;53.364;-1.488;2023-03-25T00:06:31;97916.22;;;13.04;52.04
29879;BME280;16752;53.364;-1.488;2023-03-25T00:09:20;97971.41;;;12.81;53.42
29879;BME280;16752;53.364;-1.488;2023-03-25T00:12:04;97906.31;;;13.96;49.68
29879;BME280;16752;53.364;-1.488;2023-03-25T00:14:49;97954.00;;;12.80;53.80
29879;BME280;16752;53.364;-1.488;2023-03-25T00:17:44;97949.50;;;13.87;51.26
29879;BME280;16752;53.364;-1.488;2023-03-25T00:20:29;97918.53;;;12.99;53.16
29879;BME280;16752;53.364;-1.488;2023-03-25T00:23:27;97873.66;;;12.63;53.41
29879;BME280;16752;53.364;-1.488;2023-03-25T00:26:31;98016.75;;;13.75;53.23
29879;BME280;16752;53.364;-1.488;2023-03-25T00:29:15;97862.31;;;13.08;51.77
29879;BME280;16752;53.364;-1.488;2023-03-25T00:35:15;97969.53;;;13.59;53.01
29879;BME280;16752;53.364;-1.488;2023-03-25T00:38:01;98001.72;;;13.98;51.93
29879;BME280;16752;53.364;-1.488;2023-03-25T00:40:45;97906.03;;;12.55;53.83
29879;BME280;16752;53.364;-1.488;2023-03-25T00:43:34;97977.06;;;13.16;53.75
29879;BME280;16752;53.364;-1.488;2023-03-25T00:46:18;97857.44;;;12.37;53.10
29879;BME280;16752;53.364;-1.488;2023-03-25T00:49:05;97957.16;;;12.99;54.30
29879;BME280;16752;53.364;-1.488;2023-03-25T00:51:53;97834.41;;;12.16;53.51
29879;BME280;16752;53.364;-1.488;2023-03-25T00:54:59;97827.38;;;12.62;52.66
29879;BME280;16752;53.364;-1.488;2023-03-25T01:01:15;97977.28;;;13.75;52.14
29879;BME280;16752;53.364;-1.488;2023-03-25T01:04:05;97841.44;;;11.84;53.61
29879;BME280;16752;53.364;-1.488;2023-03-25T01:06:56;97921.31;;;12.52;53.40
29879;BME280;16752;53.364;-1.488;2023-03-25T01:09:42;97981.00;;;13.20;53.32
29879;BME280;16752;53.364;-1.488;2023-03-25T01:12:36;97823.38;;;11.89;54.45
29879;BME280;16752;53.364;-1.488;2023-03-25T01:15:23;97817.19;;;12.13;53.76
29879;BME280;16752;53.364;-1.488;2023-03-25T01:18:09;97915.25;;;12.82;53.14
29879;BME280;16752;53.364;-1.488;2023-03-25T01:20:54;97864.88;;;12.25;53.16
29879;BME280;16752;53.364;-1.488;2023-03-25T01:23:39;97822.31;;;12.38;52.47
29879;BME280;16752;53.364;-1.488;2023-03-25T01:26:23;97890.47;;;12.77;52.05
29879;BME280;16752;53.364;-1.488;2023-03-25T01:38:06;97871.28;;;11.75;54.42
29879;BME280;16752;53.364;-1.488;2023-03-25T01:40:54;97840.19;;;12.34;51.81
29879;BME280;16752;53.364;-1.488;2023-03-25T01:47:05;97948.56;;;12.59;53.09
29879;BME280;16752;53.364;-1.488;2023-03-25T01:49:53;97943.94;;;12.61;53.53
29879;BME280;16752;53.364;-1.488;2023-03-25T01:52:49;97989.53;;;13.22;52.51
29879;BME280;16752;53.364;-1.488;2023-03-25T01:55:40;97939.00;;;13.12;52.12
29879;BME280;16752;53.364;-1.488;2023-03-25T01:58:29;97961.41;;;12.77;53.08
29879;BME280;16752;53.364;-1.488;2023-03-25T02:01:27;97865.75;;;12.09;52.49
29879;BME280;16752;53.364;-1.488;2023-03-25T02:07:32;97924.06;;;12.90;53.01
29879;BME280;16752;53.364;-1.488;2023-03-25T02:10:21;97981.31;;;12.94;52.92
29879;BME280;16752;53.364;-1.488;2023-03-25T02:13:08;97939.34;;;13.09;51.62
29879;BME280;16752;53.364;-1.488;2023-03-25T02:22:37;98001.94;;;12.82;53.13
29879;BME280;16752;53.364;-1.488;2023-03-25T02:38:33;97996.66;;;13.13;52.84
29879;BME280;16752;53.364;-1.488;2023-03-25T02:41:56;98003.88;;;13.80;50.78
29879;BME280;16752;53.364;-1.488;2023-03-25T02:48:11;97942.38;;;12.98;50.79
29879;BME280;16752;53.364;-1.488;2023-03-25T02:51:06;97942.06;;;13.24;50.76
29879;BME280;16752;53.364;-1.488;2023-03-25T02:53:57;97952.13;;;13.58;49.41
29879;BME280;16752;53.364;-1.488;2023-03-25T02:56:56;97921.03;;;12.47;51.07
29879;BME280;16752;53.364;-1.488;2023-03-25T02:59:47;97916.34;;;12.65;50.62
29879;BME280;16752;53.364;-1.488;2023-03-25T03:05:48;98004.63;;;13.28;49.71
29879;BME280;16752;53.364;-1.488;2023-03-25T03:08:55;97988.47;;;12.85;51.08
29879;BME280;16752;53.364;-1.488;2023-03-25T03:12:14;97997.81;;;13.57;49.80
29879;BME280;16752;53.364;-1.488;2023-03-25T03:21:13;97990.47;;;12.44;51.42
29879;BME280;16752;53.364;-1.488;2023-03-25T03:24:26;98003.34;;;12.93;50.64
29879;BME280;16752;53.364;-1.488;2023-03-25T03:27:20;98036.44;;;12.40;51.54
29879;BME280;16752;53.364;-1.488;2023-03-25T03:30:13;97943.97;;;13.07;49.21
29879;BME280;16752;53.364;-1.488;2023-03-25T03:33:17;97995.13;;;13.65;49.22
29879;BME280;16752;53.364;-1.488;2023-03-25T03:36:09;97893.53;;;12.58;49.61
29879;BME280;16752;53.364;-1.488;2023-03-25T03:39:05;97957.59;;;13.33;48.32
29879;BME280;16752;53.364;-1.488;2023-03-25T03:42:00;97946.63;;;13.44;48.14
29879;BME280;16752;53.364;-1.488;2023-03-25T03:48:37;97907.97;;;13.68;46.86
29879;BME280;16752;53.364;-1.488;2023-03-25T03:51:29;97987.94;;;14.11;47.25
29879;BME280;16752;53.364;-1.488;2023-03-25T03:54:24;97993.47;;;13.49;47.74
29879;BME280;16752;53.364;-1.488;2023-03-25T04:00:25;97918.38;;;12.78;48.10
29879;BME280;16752;53.364;-1.488;2023-03-25T04:03:16;98033.84;;;13.56;48.13
29879;BME280;16752;53.364;-1.488;2023-03-25T04:12:27;97931.66;;;12.14;51.29
29879;BME280;16752;53.364;-1.488;2023-03-25T04:15:15;97839.69;;;12.39;48.43
29879;BME280;16752;53.364;-1.488;2023-03-25T04:18:00;98039.06;;;13.79;47.70
29879;BME280;16752;53.364;-1.488;2023-03-25T04:20:46;97964.03;;;13.83;46.63
29879;BME280;16752;53.364;-1.488;2023-03-25T04:23:33;97956.00;;;13.47;46.90
29879;BME280;16752;53.364;-1.488;2023-03-25T04:26:17;98064.13;;;13.29;49.90
29879;BME280;16752;53.364;-1.488;2023-03-25T04:29:03;98012.06;;;13.48;49.90
29879;BME280;16752;53.364;-1.488;2023-03-25T04:31:47;98036.22;;;13.20;51.13
29879;BME280;16752;53.364;-1.488;2023-03-25T04:34:34;97942.88;;;13.24;50.03
29879;BME280;16752;53.364;-1.488;2023-03-25T04:37:30;97967.09;;;12.89;51.44
29879;BME280;16752;53.364;-1.488;2023-03-25T04:40:21;97948.88;;;12.25;53.42
29879;BME280;16752;53.364;-1.488;2023-03-25T04:43:30;98100.66;;;13.47;53.10
29879;BME280;16752;53.364;-1.488;2023-03-25T04:46:17;98090.63;;;13.11;53.28
29879;BME280;16752;53.364;-1.488;2023-03-25T04:49:05;98023.91;;;12.59;52.69
29879;BME280;16752;53.364;-1.488;2023-03-25T04:52:03;98013.34;;;13.29;51.16
29879;BME280;16752;53.364;-1.488;2023-03-25T04:54:51;97938.72;;;11.50;54.71
29879;BME280;16752;53.364;-1.488;2023-03-25T04:58:08;98126.66;;;13.65;50.70
29879;BME280;16752;53.364;-1.488;2023-03-25T05:00:58;98005.81;;;12.95;51.53
29879;BME280;16752;53.364;-1.488;2023-03-25T05:11:18;98148.41;;;13.59;53.16
29879;BME280;16752;53.364;-1.488;2023-03-25T05:14:06;98066.84;;;12.18;54.62
29879;BME280;16752;53.364;-1.488;2023-03-25T05:17:25;98139.31;;;12.44;55.65
29879;BME280;16752;53.364;-1.488;2023-03-25T05:20:16;98073.00;;;13.28;51.86
29879;BME280;16752;53.364;-1.488;2023-03-25T05:23:44;98023.47;;;13.09;50.91
29879;BME280;16752;53.364;-1.488;2023-03-25T05:26:30;98073.06;;;13.12;51.70
29879;BME280;16752;53.364;-1.488;2023-03-25T05:29:24;97963.75;;;11.85;52.69
29879;BME280;16752;53.364;-1.488;2023-03-25T05:32:12;98164.38;;;13.80;51.56
29879;BME280;16752;53.364;-1.488;2023-03-25T05:35:13;98008.59;;;12.62;52.71
29879;BME280;16752;53.364;-1.488;2023-03-25T05:41:12;98133.75;;;14.25;48.98
29879;BME280;16752;53.364;-1.488;2023-03-25T05:43:59;98140.59;;;13.96;49.90
29879;BME280;16752;53.364;-1.488;2023-03-25T05:47:05;98086.81;;;12.36;52.53
29879;BME280;16752;53.364;-1.488;2023-03-25T05:50:01;98109.91;;;13.04;51.17
29879;BME280;16752;53.364;-1.488;2023-03-25T05:52:46;98146.78;;;14.03;49.36
29879;BME280;16752;53.364;-1.488;2023-03-25T05:55:32;98165.03;;;13.82;49.60
29879;BME280;16752;53.364;-1.488;2023-03-25T05:58:22;98151.22;;;13.57;50.20
29879;BME280;16752;53.364;-1.488;2023-03-25T06:01:09;98227.38;;;14.73;47.93
29879;BME280;16752;53.364;-1.488;2023-03-25T06:04:00;98165.09;;;14.20;47.92
29879;BME280;16752;53.364;-1.488;2023-03-25T06:06:44;98237.63;;;13.99;48.95
29879;BME280;16752;53.364;-1.488;2023-03-25T06:09:28;98250.00;;;14.22;49.45
29879;BME280;16752;53.364;-1.488;2023-03-25T06:12:18;98282.88;;;14.26;49.21
29879;BME280;16752;53.364;-1.488;2023-03-25T06:15:05;98284.56;;;13.57;51.56
29879;BME280;16752;53.364;-1.488;2023-03-25T06:17:50;98206.09;;;13.29;51.18
29879;BME280;16752;53.364;-1.488;2023-03-25T06:20:34;98206.56;;;14.18;48.96
29879;BME280;16752;53.364;-1.488;2023-03-25T06:23:17;98238.59;;;13.75;49.61
29879;BME280;16752;53.364;-1.488;2023-03-25T06:26:02;98309.25;;;14.72;48.81
29879;BME280;16752;53.364;-1.488;2023-03-25T06:28:47;98317.78;;;14.74;48.13
29879;BME280;16752;53.364;-1.488;2023-03-25T06:31:32;98328.72;;;14.08;49.57
29879;BME280;16752;53.364;-1.488;2023-03-25T06:34:15;98230.59;;;13.69;49.44
29879;BME280;16752;53.364;-1.488;2023-03-25T06:37:00;98328.69;;;14.48;48.84
29879;BME280;16752;53.364;-1.488;2023-03-25T06:39:44;98319.28;;;14.91;48.00
29879;BME280;16752;53.364;-1.488;2023-03-25T06:42:32;98287.72;;;13.83;50.03
29879;BME280;16752;53.364;-1.488;2023-03-25T06:45:17;98349.47;;;13.72;50.91
29879;BME280;16752;53.364;-1.488;2023-03-25T06:48:00;98291.97;;;14.69;47.94
29879;BME280;16752;53.364;-1.488;2023-03-25T06:50:46;98354.56;;;14.44;49.12
29879;BME280;16752;53.364;-1.488;2023-03-25T06:53:30;98344.72;;;14.38;48.52
29879;BME280;16752;53.364;-1.488;2023-03-25T06:56:15;98380.34;;;15.03;47.93
29879;BME280;16752;53.364;-1.488;2023-03-25T06:58:59;98365.44;;;14.41;48.28
29879;BME280;16752;53.364;-1.488;2023-03-25T07:01:44;98346.00;;;14.42;49.44
29879;BME280;16752;53.364;-1.488;2023-03-25T07:04:28;98413.59;;;15.26;47.48
29879;BME280;16752;53.364;-1.488;2023-03-25T07:07:12;98395.06;;;15.35;47.33
29879;BME280;16752;53.364;-1.488;2023-03-25T07:09:55;98386.50;;;14.95;47.57
29879;BME280;16752;53.364;-1.488;2023-03-25T07:12:40;98368.94;;;15.25;46.67
29879;BME280;16752;53.364;-1.488;2023-03-25T07:15:24;98385.16;;;14.14;48.94
29879;BME280;16752;53.364;-1.488;2023-03-25T07:18:08;98419.25;;;14.78;48.19
29879;BME280;16752;53.364;-1.488;2023-03-25T07:20:52;98372.63;;;15.01;47.52
29879;BME280;16752;53.364;-1.488;2023-03-25T07:23:36;98422.91;;;15.00;48.20
29879;BME280;16752;53.364;-1.488;2023-03-25T07:26:21;98374.34;;;14.01;48.40
29879;BME280;16752;53.364;-1.488;2023-03-25T07:29:05;98399.59;;;15.26;46.59
29879;BME280;16752;53.364;-1.488;2023-03-25T07:31:49;98444.66;;;15.16;46.94
29879;BME280;16752;53.364;-1.488;2023-03-25T07:34:33;98402.63;;;13.52;49.45
29879;BME280;16752;53.364;-1.488;2023-03-25T07:37:25;98416.19;;;14.89;47.76
29879;BME280;16752;53.364;-1.488;2023-03-25T07:40:10;98351.38;;;14.57;47.36
29879;BME280;16752;53.364;-1.488;2023-03-25T07:42:54;98389.69;;;15.28;45.53
29879;BME280;16752;53.364;-1.488;2023-03-25T07:45:38;98400.81;;;14.47;46.86
29879;BME280;16752;53.364;-1.488;2023-03-25T07:48:22;98419.28;;;15.53;45.45
29879;BME280;16752;53.364;-1.488;2023-03-25T07:51:06;98416.00;;;14.36;48.59
29879;BME280;16752;53.364;-1.488;2023-03-25T07:53:51;98467.25;;;15.42;46.93
29879;BME280;16752;53.364;-1.488;2023-03-25T07:56:35;98458.38;;;15.12;46.92
29879;BME280;16752;53.364;-1.488;2023-03-25T07:59:22;98474.25;;;15.72;45.53
29879;BME280;16752;53.364;-1.488;2023-03-25T08:02:11;98437.56;;;14.71;46.41
29879;BME280;16752;53.364;-1.488;2023-03-25T08:04:55;98450.53;;;15.26;46.18
29879;BME280;16752;53.364;-1.488;2023-03-25T08:07:40;98426.03;;;14.72;46.39
29879;BME280;16752;53.364;-1.488;2023-03-25T08:10:24;98521.81;;;15.87;45.31
29879;BME280;16752;53.364;-1.488;2023-03-25T08:13:09;98525.84;;;15.52;45.60
29879;BME280;16752;53.364;-1.488;2023-03-25T08:15:53;98437.88;;;14.76;45.88
29879;BME280;16752;53.364;-1.488;2023-03-25T08:18:38;98467.75;;;15.60;44.49
29879;BME280;16752;53.364;-1.488;2023-03-25T08:21:22;98492.09;;;15.70;44.25
29879;BME280;16752;53.364;-1.488;2023-03-25T08:24:24;98465.72;;;16.00;43.19
29879;BME280;16752;53.364;-1.488;2023-03-25T08:27:09;98520.03;;;15.56;44.84
29879;BME280;16752;53.364;-1.488;2023-03-25T08:29:56;98440.41;;;15.53;43.43
29879;BME280;16752;53.364;-1.488;2023-03-25T08:32:42;98580.63;;;16.63;43.38
29879;BME280;16752;53.364;-1.488;2023-03-25T08:35:29;98581.78;;;17.04;42.38
29879;BME280;16752;53.364;-1.488;2023-03-25T08:38:16;98505.66;;;16.85;41.83
29879;BME280;16752;53.364;-1.488;2023-03-25T08:41:02;98542.34;;;16.59;42.70
29879;BME280;16752;53.364;-1.488;2023-03-25T08:43:46;98603.75;;;16.31;43.30
29879;BME280;16752;53.364;-1.488;2023-03-25T08:46:30;98556.94;;;16.55;42.20
29879;BME280;16752;53.364;-1.488;2023-03-25T08:49:15;98572.00;;;17.20;40.33
29879;BME280;16752;53.364;-1.488;2023-03-25T08:51:59;98608.09;;;16.76;42.32
29879;BME280;16752;53.364;-1.488;2023-03-25T08:54:44;98551.00;;;16.67;42.68
29879;BME280;16752;53.364;-1.488;2023-03-25T08:57:28;98652.41;;;17.91;40.91
29879;BME280;16752;53.364;-1.488;2023-03-25T09:00:36;98590.03;;;17.31;40.04
29879;BME280;16752;53.364;-1.488;2023-03-25T09:03:38;98629.34;;;17.34;40.83
29879;BME280;16752;53.364;-1.488;2023-03-25T09:06:24;98607.72;;;16.12;42.79
29879;BME280;16752;53.364;-1.488;2023-03-25T09:09:12;98669.81;;;17.64;39.63
29879;BME280;16752;53.364;-1.488;2023-03-25T09:11:59;98617.06;;;17.11;39.99
29879;BME280;16752;53.364;-1.488;2023-03-25T09:14:54;98598.03;;;17.16;40.40
29879;BME280;16752;53.364;-1.488;2023-03-25T09:17:39;98601.41;;;16.51;41.20
29879;BME280;16752;53.364;-1.488;2023-03-25T09:20:25;98671.38;;;16.78;42.39
29879;BME280;16752;53.364;-1.488;2023-03-25T09:23:14;98680.56;;;17.41;41.33
29879;BME280;16752;53.364;-1.488;2023-03-25T09:26:00;98661.81;;;16.77;42.39
29879;BME280;16752;53.364;-1.488;2023-03-25T09:28:45;98721.19;;;17.19;44.09
29879;BME280;16752;53.364;-1.488;2023-03-25T09:31:32;98710.28;;;16.69;43.79
29879;BME280;16752;53.364;-1.488;2023-03-25T09:34:17;98642.34;;;16.70;44.44
29879;BME280;16752;53.364;-1.488;2023-03-25T09:37:01;98591.00;;;16.35;42.93
29879;BME280;16752;53.364;-1.488;2023-03-25T09:39:52;98667.00;;;17.15;43.90
29879;BME280;16752;53.364;-1.488;2023-03-25T09:45:47;98712.72;;;17.74;42.16
29879;BME280;16752;53.364;-1.488;2023-03-25T09:48:38;98666.19;;;17.14;42.95
29879;BME280;16752;53.364;-1.488;2023-03-25T09:51:27;98765.28;;;18.28;42.39
29879;BME280;16752;53.364;-1.488;2023-03-25T09:54:16;98770.94;;;16.71;42.84
29879;BME280;16752;53.364;-1.488;2023-03-25T09:57:14;98750.94;;;18.01;41.30
29879;BME280;16752;53.364;-1.488;2023-03-25T10:00:02;98777.56;;;18.14;41.78
29879;BME280;16752;53.364;-1.488;2023-03-25T10:05:55;98801.59;;;18.49;40.15
29879;BME280;16752;53.364;-1.488;2023-03-25T10:09:11;98722.56;;;18.87;40.06
29879;BME280;16752;53.364;-1.488;2023-03-25T10:15:02;98806.41;;;19.09;39.68
29879;BME280;16752;53.364;-1.488;2023-03-25T10:18:55;98828.06;;;18.06;40.36
29879;BME280;16752;53.364;-1.488;2023-03-25T10:24:22;98740.69;;;18.83;38.87
29879;BME280;16752;53.364;-1.488;2023-03-25T10:27:28;98830.06;;;19.32;38.24
29879;BME280;16752;53.364;-1.488;2023-03-25T10:33:34;98859.91;;;19.34;39.63
29879;BME280;16752;53.364;-1.488;2023-03-25T10:36:24;98716.00;;;18.61;38.42
29879;BME280;16752;53.364;-1.488;2023-03-25T10:39:16;98770.53;;;18.64;37.63
29879;BME280;16752;53.364;-1.488;2023-03-25T10:45:14;98794.75;;;18.82;38.00
29879;BME280;16752;53.364;-1.488;2023-03-25T10:48:08;98842.78;;;18.66;37.45
29879;BME280;16752;53.364;-1.488;2023-03-25T10:51:01;98881.00;;;19.49;36.40
29879;BME280;16752;53.364;-1.488;2023-03-25T10:53:50;98773.03;;;18.51;37.50
29879;BME280;16752;53.364;-1.488;2023-03-25T10:56:41;98795.09;;;19.01;37.10
29879;BME280;16752;53.364;-1.488;2023-03-25T11:00:17;98845.72;;;19.27;35.75
29879;BME280;16752;53.364;-1.488;2023-03-25T11:02:46;98877.03;;;19.32;37.22
29879;BME280;16752;53.364;-1.488;2023-03-25T11:05:30;98819.97;;;18.93;36.32
29879;BME280;16752;53.364;-1.488;2023-03-25T11:08:24;98863.53;;;19.55;35.63
29879;BME280;16752;53.364;-1.488;2023-03-25T11:11:08;98849.81;;;19.02;37.57
29879;BME280;16752;53.364;-1.488;2023-03-25T11:13:58;98916.63;;;18.48;37.77
29879;BME280;16752;53.364;-1.488;2023-03-25T11:17:09;98939.13;;;19.31;36.69
29879;BME280;16752;53.364;-1.488;2023-03-25T11:19:57;98917.06;;;18.51;38.11
29879;BME280;16752;53.364;-1.488;2023-03-25T11:25:28;98964.19;;;19.07;37.39
29879;BME280;16752;53.364;-1.488;2023-03-25T11:28:35;98980.28;;;18.18;40.10
29879;BME280;16752;53.364;-1.488;2023-03-25T11:31:23;98928.66;;;18.65;38.80
29879;BME280;16752;53.364;-1.488;2023-03-25T11:37:14;98929.94;;;19.33;36.27
29879;BME280;16752;53.364;-1.488;2023-03-25T11:40:04;98921.47;;;18.80;37.57
29879;BME280;16752;53.364;-1.488;2023-03-25T11:42:57;98951.19;;;19.55;36.02
29879;BME280;16752;53.364;-1.488;2023-03-25T11:45:42;98949.03;;;19.22;35.91
29879;BME280;16752;53.364;-1.488;2023-03-25T11:48:30;98983.97;;;20.31;35.07
29879;BME280;16752;53.364;-1.488;2023-03-25T11:51:27;99009.72;;;19.04;37.27
29879;BME280;16752;53.364;-1.488;2023-03-25T11:54:15;99003.75;;;17.92;38.74
29879;BME280;16752;53.364;-1.488;2023-03-25T11:57:15;99016.84;;;19.89;37.21
29879;BME280;16752;53.364;-1.488;2023-03-25T12:03:03;99020.50;;;19.60;37.47
29879;BME280;16752;53.364;-1.488;2023-03-25T12:06:03;99002.94;;;18.06;39.98
29879;BME280;16752;53.364;-1.488;2023-03-25T12:09:06;99012.66;;;20.01;36.66
29879;BME280;16752;53.364;-1.488;2023-03-25T12:12:03;98930.97;;;19.88;36.01
29879;BME280;16752;53.364;-1.488;2023-03-25T12:21:40;99041.94;;;20.77;34.15
29879;BME280;16752;53.364;-1.488;2023-03-25T12:33:33;99042.78;;;21.64;32.74
29879;BME280;16752;53.364;-1.488;2023-03-25T12:39:34;99048.19;;;23.20;31.08
29879;BME280;16752;53.364;-1.488;2023-03-25T12:51:40;99043.13;;;20.67;32.79
29879;BME280;16752;53.364;-1.488;2023-03-25T12:58:35;99004.44;;;21.32;32.38
29879;BME280;16752;53.364;-1.488;2023-03-25T13:11:27;99045.00;;;23.43;29.06
29879;BME280;16752;53.364;-1.488;2023-03-25T13:14:23;99034.53;;;24.41;27.63
29879;BME280;16752;53.364;-1.488;2023-03-25T13:17:38;99056.66;;;25.33;26.18
29879;BME280;16752;53.364;-1.488;2023-03-25T13:20:46;99051.09;;;24.86;26.13
29879;BME280;16752;53.364;-1.488;2023-03-25T13:23:36;99024.03;;;24.76;26.56
29879;BME280;16752;53.364;-1.488;2023-03-25T13:26:30;99053.59;;;25.18;24.75
29879;BME280;16752;53.364;-1.488;2023-03-25T13:29:55;99070.22;;;25.68;26.13
29879;BME280;16752;53.364;-1.488;2023-03-25T13:32:45;99049.25;;;24.32;26.67
29879;BME280;16752;53.364;-1.488;2023-03-25T13:35:45;99065.75;;;25.32;25.33
29879;BME280;16752;53.364;-1.488;2023-03-25T13:38:46;99069.25;;;25.03;26.19
29879;BME280;16752;53.364;-1.488;2023-03-25T13:41:56;98993.22;;;24.67;24.76
29879;BME280;16752;53.364;-1.488;2023-03-25T13:44:44;98978.34;;;25.19;24.24
29879;BME280;16752;53.364;-1.488;2023-03-25T13:47:40;98999.88;;;24.94;23.95
29879;BME280;16752;53.364;-1.488;2023-03-25T13:50:29;99021.28;;;24.03;26.50
29879;BME280;16752;53.364;-1.488;2023-03-25T13:53:28;99077.59;;;25.43;25.37
29879;BME280;16752;53.364;-1.488;2023-03-25T14:06:34;99052.06;;;25.40;25.94
29879;BME280;16752;53.364;-1.488;2023-03-25T14:09:32;99054.97;;;25.50;24.29
29879;BME280;16752;53.364;-1.488;2023-03-25T14:12:31;99017.19;;;25.10;24.19
29879;BME280;16752;53.364;-1.488;2023-03-25T14:15:33;99007.63;;;25.86;24.37
29879;BME280;16752;53.364;-1.488;2023-03-25T14:18:18;99063.53;;;27.28;22.66
29879;BME280;16752;53.364;-1.488;2023-03-25T14:29:45;99004.63;;;22.10;27.65
29879;BME280;16752;53.364;-1.488;2023-03-25T14:32:36;99075.00;;;23.45;26.62
29879;BME280;16752;53.364;-1.488;2023-03-25T14:38:20;99020.16;;;23.04;27.07
29879;BME280;16752;53.364;-1.488;2023-03-25T14:41:04;99033.00;;;22.69;28.23
29879;BME280;16752;53.364;-1.488;2023-03-25T14:44:09;99147.97;;;22.94;27.92
29879;BME280;16752;53.364;-1.488;2023-03-25T14:53:09;99097.97;;;24.59;25.95
29879;BME280;16752;53.364;-1.488;2023-03-25T14:55:59;99133.81;;;24.58;26.27
29879;BME280;16752;53.364;-1.488;2023-03-25T14:58:50;99061.75;;;25.83;23.74
29879;BME280;16752;53.364;-1.488;2023-03-25T15:01:37;99075.06;;;26.71;23.29
29879;BME280;16752;53.364;-1.488;2023-03-25T15:04:33;99027.31;;;22.52;27.32
29879;BME280;16752;53.364;-1.488;2023-03-25T15:10:32;99104.13;;;23.60;27.46
29879;BME280;16752;53.364;-1.488;2023-03-25T15:13:33;99089.41;;;24.50;26.28
29879;BME280;16752;53.364;-1.488;2023-03-25T15:16:37;99089.34;;;23.57;25.97
29879;BME280;16752;53.364;-1.488;2023-03-25T15:26:30;99112.72;;;21.05;33.83
29879;BME280;16752;53.364;-1.488;2023-03-25T15:32:20;99169.50;;;21.19;32.62
29879;BME280;16752;53.364;-1.488;2023-03-25T15:41:42;99149.00;;;20.79;33.83
29879;BME280;16752;53.364;-1.488;2023-03-25T15:56:48;99123.03;;;22.22;29.86
29879;BME280;16752;53.364;-1.488;2023-03-25T15:59:59;99168.09;;;23.03;28.72
29879;BME280;16752;53.364;-1.488;2023-03-25T16:03:19;99170.63;;;22.45;30.26
29879;BME280;16752;53.364;-1.488;2023-03-25T16:06:05;99083.13;;;21.42;30.73
29879;BME280;16752;53.364;-1.488;2023-03-25T16:08:51;99053.78;;;20.67;31.86
29879;BME280;16752;53.364;-1.488;2023-03-25T16:11:40;99060.69;;;19.99;32.41
29879;BME280;16752;53.364;-1.488;2023-03-25T16:14:29;99122.16;;;20.73;32.43
29879;BME280;16752;53.364;-1.488;2023-03-25T16:17:15;99146.59;;;20.49;34.29
29879;BME280;16752;53.364;-1.488;2023-03-25T16:20:00;99059.13;;;19.41;34.14
29879;BME280;16752;53.364;-1.488;2023-03-25T16:22:51;99104.63;;;20.86;32.13
29879;BME280;16752;53.364;-1.488;2023-03-25T16:25:40;99167.44;;;21.15;32.40
29879;BME280;16752;53.364;-1.488;2023-03-25T16:28:33;99102.59;;;20.53;32.15
29879;BME280;16752;53.364;-1.488;2023-03-25T16:31:31;99156.69;;;21.29;31.40
29879;BME280;16752;53.364;-1.488;2023-03-25T16:34:16;99110.63;;;20.32;32.63
29879;BME280;16752;53.364;-1.488;2023-03-25T16:37:00;99113.47;;;20.93;31.83
29879;BME280;16752;53.364;-1.488;2023-03-25T16:39:50;99111.84;;;20.57;31.70
29879;BME280;16752;53.364;-1.488;2023-03-25T16:42:35;99098.56;;;20.36;32.59
29879;BME280;16752;53.364;-1.488;2023-03-25T16:45:20;99126.03;;;20.64;32.11
29879;BME280;16752;53.364;-1.488;2023-03-25T16:48:15;99102.06;;;20.64;31.33
29879;BME280;16752;53.364;-1.488;2023-03-25T16:51:25;99086.84;;;20.52;32.25
29879;BME280;16752;53.364;-1.488;2023-03-25T16:57:38;99202.91;;;20.10;33.32
29879;BME280;16752;53.364;-1.488;2023-03-25T17:00:35;99181.63;;;20.59;32.22
29879;BME280;16752;53.364;-1.488;2023-03-25T17:03:40;99193.97;;;20.39;33.56
29879;BME280;16752;53.364;-1.488;2023-03-25T17:06:34;99189.06;;;20.64;32.82
29879;BME280;16752;53.364;-1.488;2023-03-25T17:09:25;99138.03;;;20.04;33.04
29879;BME280;16752;53.364;-1.488;2023-03-25T17:12:19;99036.34;;;19.32;33.32
29879;BME280;16752;53.364;-1.488;2023-03-25T17:15:05;99125.59;;;19.11;34.95
29879;BME280;16752;53.364;-1.488;2023-03-25T17:17:56;99130.00;;;19.76;33.64
29879;BME280;16752;53.364;-1.488;2023-03-25T17:20:46;99139.31;;;19.00;34.66
29879;BME280;16752;53.364;-1.488;2023-03-25T17:23:43;99117.94;;;19.74;33.63
29879;BME280;16752;53.364;-1.488;2023-03-25T17:27:02;99207.16;;;18.50;36.05
29879;BME280;16752;53.364;-1.488;2023-03-25T17:29:52;99053.75;;;17.26;36.63
29879;BME280;16752;53.364;-1.488;2023-03-25T17:32:41;99116.31;;;19.07;35.23
29879;BME280;16752;53.364;-1.488;2023-03-25T17:35:29;99184.88;;;19.33;34.43
29879;BME280;16752;53.364;-1.488;2023-03-25T17:38:27;99185.97;;;19.24;35.17
29879;BME280;16752;53.364;-1.488;2023-03-25T17:41:13;99137.22;;;18.96;36.41
29879;BME280;16752;53.364;-1.488;2023-03-25T17:43:59;99119.78;;;19.22;35.44
29879;BME280;16752;53.364;-1.488;2023-03-25T17:46:43;99216.97;;;19.68;35.08
29879;BME280;16752;53.364;-1.488;2023-03-25T17:49:28;99154.91;;;19.39;35.23
29879;BME280;16752;53.364;-1.488;2023-03-25T17:52:12;99111.38;;;19.19;34.76
29879;BME280;16752;53.364;-1.488;2023-03-25T17:54:56;99054.88;;;18.59;35.50
29879;BME280;16752;53.364;-1.488;2023-03-25T17:57:41;99088.06;;;18.85;36.07
29879;BME280;16752;53.364;-1.488;2023-03-25T18:00:25;99213.03;;;19.49;37.03
29879;BME280;16752;53.364;-1.488;2023-03-25T18:03:22;99222.00;;;19.48;36.88
29879;BME280;16752;53.364;-1.488;2023-03-25T18:06:21;99112.22;;;18.46;38.19
29879;BME280;16752;53.364;-1.488;2023-03-25T18:09:14;99139.75;;;18.45;37.67
29879;BME280;16752;53.364;-1.488;2023-03-25T18:12:00;99164.59;;;18.67;37.70
29879;BME280;16752;53.364;-1.488;2023-03-25T18:14:44;99223.88;;;18.88;38.55
29879;BME280;16752;53.364;-1.488;2023-03-25T18:17:29;99230.38;;;18.71;39.12
29879;BME280;16752;53.364;-1.488;2023-03-25T18:20:16;99242.34;;;18.67;38.68
29879;BME280;16752;53.364;-1.488;2023-03-25T18:23:01;99171.81;;;18.35;38.37
29879;BME280;16752;53.364;-1.488;2023-03-25T18:25:47;99239.53;;;18.60;38.44